Terminal Aerodrome Forecast
Issued by NWS

Home | Current Version | Previous Version | Text Only | Print | Product List | Glossary On
Versions: 1 2 3 4 5 6 7 8 9 10 11 12 13 14 15
000
FTAK31 PAJN 201700
TAFAPG
TAF
PAPG 201723Z 2018/2118 08008KT P6SM VCSH SCT025 OVC040
     FM202300 12006KT P6SM -RA BKN030 OVC050
     FM210400 06005KT P6SM SCT030 BKN060
     FM211500 11005KT P6SM VCSH SCT025 OVC040
      AMD LTD TO CLD VIS AND WIND 2106/2115=

USA.gov is the U.S. government's official web portal to all federal, state and local government web resources and services.